createdAt,value
2019-05-17T00:01:07.529Z,100.00
2019-05-17T00:03:37.105Z,100.00
2019-05-17T00:06:06.933Z,100.00
2019-05-17T00:08:38.241Z,100.00
2019-05-17T00:11:07.700Z,100.00
2019-05-17T00:13:38.700Z,100.00
2019-05-17T00:16:08.457Z,100.00
2019-05-17T00:18:37.893Z,100.00
2019-05-17T00:21:07.827Z,100.00
2019-05-17T00:23:37.664Z,100.00
2019-05-17T00:26:07.407Z,100.00
2019-05-17T00:28:37.471Z,100.00
2019-05-17T00:31:07.090Z,100.00
2019-05-17T00:33:36.834Z,100.00
2019-05-17T00:36:07.014Z,100.00
2019-05-17T00:38:47.878Z,100.00
2019-05-17T00:41:07.928Z,100.00
2019-05-17T00:43:37.356Z,100.00
2019-05-17T00:46:06.911Z,100.00
2019-05-17T00:48:37.278Z,100.00
2019-05-17T00:51:10.017Z,100.00
2019-05-17T00:53:38.081Z,100.00
2019-05-17T00:56:07.541Z,100.00
2019-05-17T00:58:37.179Z,100.00
2019-05-17T01:01:08.281Z,100.00
2019-05-17T01:03:37.832Z,100.00
2019-05-17T01:06:07.262Z,100.00
2019-05-17T01:08:37.255Z,100.00
2019-05-17T01:11:07.279Z,100.00
2019-05-17T01:13:37.391Z,100.00
2019-05-17T01:16:07.508Z,100.00
2019-05-17T01:18:36.954Z,100.00
2019-05-17T01:21:07.105Z,100.00
2019-05-17T01:23:36.534Z,100.00
2019-05-17T01:26:07.529Z,100.00
2019-05-17T01:28:37.227Z,100.00
2019-05-17T01:31:06.863Z,100.00
2019-05-17T01:33:36.939Z,100.00
2019-05-17T01:36:06.987Z,100.00
2019-05-17T01:38:37.766Z,100.00
2019-05-17T01:41:07.353Z,100.00
2019-05-17T01:43:36.978Z,100.00
2019-05-17T01:46:06.823Z,100.00
2019-05-17T01:48:36.735Z,100.00
2019-05-17T01:51:07.597Z,100.00
2019-05-17T01:53:37.230Z,100.00
2019-05-17T01:56:06.674Z,100.00
2019-05-17T01:58:36.636Z,100.00
2019-05-17T02:01:07.593Z,100.00
2019-05-17T02:03:37.667Z,100.00
2019-05-17T02:06:07.678Z,100.00
2019-05-17T02:08:37.431Z,100.00
2019-05-17T02:11:07.034Z,100.00
2019-05-17T02:13:37.581Z,100.00
2019-05-17T02:16:07.461Z,100.00
2019-05-17T02:18:37.150Z,100.00
2019-05-17T02:21:06.654Z,100.00
2019-05-17T02:23:37.202Z,100.00
2019-05-17T02:26:06.918Z,100.00
2019-05-17T02:28:36.405Z,100.00
2019-05-17T02:31:05.856Z,100.00
2019-05-17T02:33:35.283Z,100.00
2019-05-17T02:36:04.700Z,100.00
2019-05-17T02:38:34.282Z,100.00
2019-05-17T02:41:03.843Z,100.00
2019-05-17T02:43:33.788Z,100.00
2019-05-17T02:46:04.146Z,100.00
2019-05-17T02:48:34.288Z,100.00
2019-05-17T02:51:04.184Z,100.00
2019-05-17T02:53:33.860Z,100.00
2019-05-17T02:56:03.653Z,100.00
2019-05-17T02:58:33.469Z,100.00
2019-05-17T03:01:04.052Z,100.00
2019-05-17T03:03:33.851Z,100.00
2019-05-17T03:06:03.599Z,100.00
2019-05-17T03:08:34.363Z,100.00
2019-05-17T03:11:04.200Z,100.00
2019-05-17T03:13:33.678Z,100.00
2019-05-17T03:16:03.919Z,100.00
2019-05-17T03:18:33.860Z,100.00
2019-05-17T03:21:04.196Z,100.00
2019-05-17T03:23:34.243Z,100.00
2019-05-17T03:26:04.040Z,100.00
2019-05-17T03:28:34.186Z,100.00
2019-05-17T03:31:08.108Z,100.00
2019-05-17T03:33:36.547Z,100.00
2019-05-17T03:36:07.406Z,100.00
2019-05-17T03:38:37.307Z,100.00
2019-05-17T03:41:18.148Z,100.00
2019-05-17T03:43:41.286Z,100.00
2019-05-17T03:46:09.085Z,100.00
2019-05-17T03:48:38.507Z,100.00
2019-05-17T03:51:07.981Z,100.00
2019-05-17T03:53:37.409Z,100.00
2019-05-17T03:56:06.834Z,100.00
2019-05-17T03:58:36.287Z,100.00
2019-05-17T04:01:05.723Z,100.00
2019-05-17T04:03:35.786Z,100.00
2019-05-17T04:06:05.291Z,100.00
2019-05-17T04:08:34.743Z,100.00
2019-05-17T04:11:21.202Z,100.00
2019-05-17T04:13:35.732Z,100.00
2019-05-17T04:16:08.873Z,100.00
2019-05-17T04:18:36.879Z,100.00
2019-05-17T04:21:06.325Z,100.00
2019-05-17T04:23:35.761Z,100.00
2019-05-17T04:26:05.200Z,100.00
2019-05-17T04:28:34.648Z,100.00
2019-05-17T04:31:04.073Z,100.00
2019-05-17T04:33:33.984Z,100.00
2019-05-17T04:36:03.420Z,100.00
2019-05-17T04:38:33.358Z,100.00
2019-05-17T04:41:03.580Z,100.00
2019-05-17T04:43:33.736Z,100.00
2019-05-17T04:46:03.411Z,100.00
2019-05-17T04:48:33.172Z,100.00
2019-05-17T04:51:03.084Z,100.00
2019-05-17T04:53:33.269Z,100.00
2019-05-17T04:56:03.198Z,100.00
2019-05-17T04:58:33.728Z,100.00
2019-05-17T05:01:04.336Z,100.00
2019-05-17T05:03:33.949Z,100.00
2019-05-17T05:06:03.747Z,100.00
2019-05-17T05:08:33.416Z,100.00
2019-05-17T05:11:04.083Z,100.00
2019-05-17T05:13:33.903Z,100.00
2019-05-17T05:16:04.472Z,100.00
2019-05-17T05:18:33.905Z,100.00
2019-05-17T05:21:03.898Z,100.00
2019-05-17T05:23:33.442Z,100.00
2019-05-17T05:26:03.313Z,100.00
2019-05-17T05:28:32.980Z,100.00
2019-05-17T05:31:02.556Z,100.00
2019-05-17T05:33:33.009Z,100.00
2019-05-17T05:36:02.983Z,100.00
2019-05-17T05:38:32.413Z,100.00
2019-05-17T05:41:02.116Z,100.00
2019-05-17T05:43:32.634Z,100.00
2019-05-17T05:46:02.776Z,100.00
2019-05-17T05:48:32.712Z,100.00
2019-05-17T05:51:04.773Z,100.00
2019-05-17T05:53:33.614Z,100.00
2019-05-17T05:56:03.606Z,100.00
2019-05-17T05:58:33.177Z,100.00
2019-05-17T06:01:02.775Z,100.00
2019-05-17T06:03:32.439Z,100.00
2019-05-17T06:06:02.099Z,100.00
2019-05-17T06:08:32.281Z,100.00
2019-05-17T06:11:02.432Z,100.00
2019-05-17T06:13:32.781Z,100.00
2019-05-17T06:16:02.784Z,100.00
2019-05-17T06:18:32.456Z,100.00
2019-05-17T06:21:03.009Z,100.00
2019-05-17T06:23:32.745Z,100.00
2019-05-17T06:26:04.112Z,100.00
2019-05-17T06:28:33.434Z,100.00
2019-05-17T06:31:03.176Z,99.95
2019-05-17T06:33:34.725Z,99.34
2019-05-17T06:36:03.838Z,98.56
2019-05-17T06:38:33.276Z,97.74
2019-05-17T06:41:02.738Z,95.72
2019-05-17T06:43:32.452Z,95.35
2019-05-17T06:46:02.116Z,96.00
2019-05-17T06:48:31.998Z,95.50
2019-05-17T06:51:02.546Z,94.87
2019-05-17T06:53:32.614Z,94.96
2019-05-17T06:56:02.825Z,93.25
2019-05-17T06:58:32.390Z,92.85
2019-05-17T07:01:01.987Z,91.23
2019-05-17T07:03:31.403Z,91.71
2019-05-17T07:06:02.503Z,91.21
2019-05-17T07:08:31.943Z,92.90
2019-05-17T07:11:01.370Z,93.49
2019-05-17T07:13:30.820Z,94.32
2019-05-17T07:16:00.234Z,94.70
2019-05-17T07:18:30.161Z,94.94
2019-05-17T07:21:02.830Z,94.36
2019-05-17T07:23:30.859Z,96.17
2019-05-17T07:26:00.295Z,97.28
2019-05-17T07:28:30.298Z,97.02
2019-05-17T07:30:59.955Z,96.46
2019-05-17T07:33:30.564Z,95.75
2019-05-17T07:36:00.188Z,96.01
2019-05-17T07:38:30.353Z,96.55
2019-05-17T07:40:59.897Z,96.41
2019-05-17T07:43:29.791Z,94.98
2019-05-17T07:46:00.347Z,95.32
2019-05-17T07:48:31.365Z,94.56
2019-05-17T07:51:01.076Z,93.98
2019-05-17T07:53:30.847Z,94.02
2019-05-17T07:56:00.425Z,94.14
2019-05-17T07:58:30.182Z,93.51
2019-05-17T08:01:02.091Z,92.39
2019-05-17T08:03:30.725Z,92.82
2019-05-17T08:06:00.223Z,93.04
2019-05-17T08:08:30.982Z,91.12
2019-05-17T08:11:00.849Z,89.84
2019-05-17T08:13:33.556Z,90.11
2019-05-17T08:16:01.510Z,88.70
2019-05-17T08:18:30.942Z,86.39
2019-05-17T08:21:00.406Z,85.86
2019-05-17T08:23:30.546Z,84.99
2019-05-17T08:56:20.368Z,88.92
2019-05-17T08:58:49.831Z,89.80
2019-05-17T09:01:19.717Z,91.79
2019-05-17T09:03:50.577Z,93.03
2019-05-17T09:06:20.161Z,94.09
2019-05-17T09:08:50.043Z,94.67
2019-05-17T09:11:19.777Z,94.14
2019-05-17T09:13:58.042Z,93.74
2019-05-17T09:16:20.433Z,95.47
2019-05-17T09:18:50.275Z,95.20
2019-05-17T09:21:22.002Z,96.00
2019-05-17T09:23:50.976Z,96.52
2019-05-17T09:26:20.380Z,97.92
2019-05-17T09:28:50.017Z,99.11
2019-05-17T09:31:20.413Z,99.29
2019-05-17T09:33:50.091Z,100.00
2019-05-17T09:36:20.478Z,100.00
2019-05-17T09:38:50.062Z,100.00
2019-05-17T09:41:20.050Z,100.00
2019-05-17T09:43:50.250Z,100.00
2019-05-17T09:46:19.890Z,100.00
2019-05-17T09:48:50.546Z,100.00
2019-05-17T09:51:20.177Z,100.00
2019-05-17T09:53:49.800Z,100.00
2019-05-17T09:56:20.646Z,100.00
2019-05-17T09:58:50.247Z,100.00
2019-05-17T10:01:19.891Z,100.00
2019-05-17T10:03:50.538Z,100.00
2019-05-17T10:06:20.418Z,100.00
2019-05-17T10:08:50.046Z,100.00
2019-05-17T10:11:20.356Z,100.00
2019-05-17T10:13:50.124Z,100.00
2019-05-17T10:16:20.258Z,100.00
2019-05-17T10:18:49.963Z,100.00
2019-05-17T10:21:19.968Z,100.00
2019-05-17T10:23:49.829Z,100.00
2019-05-17T10:26:19.830Z,100.00
2019-05-17T10:28:51.543Z,100.00
2019-05-17T10:31:20.652Z,100.00
2019-05-17T10:33:50.075Z,100.00
2019-05-17T10:36:20.181Z,100.00
2019-05-17T10:38:50.310Z,100.00
2019-05-17T10:41:20.092Z,100.00
2019-05-17T10:43:50.145Z,100.00
2019-05-17T10:46:20.558Z,100.00
2019-05-17T10:48:50.288Z,100.00
2019-05-17T10:51:20.223Z,100.00
2019-05-17T10:53:51.336Z,100.00
2019-05-17T10:56:23.576Z,100.00
2019-05-17T10:58:52.274Z,100.00
2019-05-17T11:01:21.701Z,100.00
2019-05-17T11:03:51.156Z,100.00
2019-05-17T11:06:20.589Z,100.00
2019-05-17T11:08:50.265Z,100.00
2019-05-17T11:11:20.258Z,100.00
2019-05-17T11:13:52.770Z,100.00
2019-05-17T11:16:20.917Z,100.00
2019-05-17T11:18:50.376Z,100.00
2019-05-17T11:21:19.822Z,100.00
2019-05-17T11:23:49.256Z,100.00
2019-05-17T11:26:18.673Z,100.00
2019-05-17T11:28:48.111Z,100.00
2019-05-17T11:31:17.552Z,100.00
2019-05-17T11:33:47.003Z,100.00
2019-05-17T11:36:16.461Z,100.00
2019-05-17T11:38:45.871Z,100.00
2019-05-17T11:41:21.260Z,100.00
2019-05-17T11:43:46.445Z,100.00
2019-05-17T11:46:15.881Z,100.00
2019-05-17T11:48:45.365Z,100.00
2019-05-17T11:51:14.785Z,100.00
2019-05-17T11:53:44.221Z,100.00
2019-05-17T11:56:13.664Z,100.00
2019-05-17T11:58:43.106Z,100.00
2019-05-17T12:01:12.648Z,100.00
2019-05-17T12:03:42.062Z,100.00
2019-05-17T12:06:11.513Z,100.00
2019-05-17T12:08:40.946Z,100.00
2019-05-17T12:11:11.227Z,100.00
2019-05-17T12:13:43.467Z,98.39
2019-05-17T12:16:11.808Z,97.27
2019-05-17T12:18:41.249Z,96.69
2019-05-17T12:21:10.702Z,95.92
2019-05-17T12:23:40.137Z,97.15
2019-05-17T12:26:09.598Z,99.08
2019-05-17T12:28:39.017Z,98.81
2019-05-17T12:31:08.437Z,97.81
2019-05-17T12:33:37.955Z,95.74
2019-05-17T12:36:07.372Z,95.55
2019-05-17T12:38:36.807Z,92.02
2019-05-17T12:41:06.256Z,89.43
2019-05-17T12:43:35.700Z,83.49
2019-05-17T12:46:05.134Z,79.05
2019-05-17T12:48:34.575Z,80.31
2019-05-17T12:51:04.005Z,80.23
2019-05-17T12:53:33.464Z,81.60
2019-05-17T12:56:02.894Z,83.68
2019-05-17T12:58:32.372Z,83.28
2019-05-17T13:01:01.863Z,82.15
2019-05-17T13:03:31.288Z,83.87
2019-05-17T13:06:14.167Z,83.71
2019-05-17T13:08:43.614Z,83.78
2019-05-17T13:11:13.050Z,83.54
2019-05-17T13:13:42.496Z,83.18
2019-05-17T13:16:18.068Z,82.24
2019-05-17T13:18:43.160Z,84.46
2019-05-17T13:21:12.613Z,85.18
2019-05-17T13:23:42.042Z,84.87
2019-05-17T13:26:11.479Z,85.09
2019-05-17T13:28:40.915Z,85.15
2019-05-17T13:31:10.412Z,86.07
2019-05-17T13:33:39.799Z,87.44
2019-05-17T13:36:09.276Z,88.26
2019-05-17T13:38:38.674Z,86.66
2019-05-17T13:41:08.124Z,84.20
2019-05-17T13:43:37.572Z,82.12
2019-05-17T13:46:07.037Z,82.78
2019-05-17T13:48:36.465Z,83.71
2019-05-17T13:51:06.010Z,83.39
2019-05-17T13:53:35.439Z,82.28
2019-05-17T13:56:04.896Z,81.52
2019-05-17T13:58:34.326Z,81.36
2019-05-17T14:01:03.753Z,80.92
2019-05-17T14:03:33.282Z,82.25
2019-05-17T14:06:02.753Z,82.61
2019-05-17T14:08:32.186Z,82.99
2019-05-17T14:11:01.680Z,83.64
2019-05-17T14:13:31.108Z,85.21
2019-05-17T14:16:00.636Z,86.87
2019-05-17T14:18:30.055Z,88.39
2019-05-17T14:20:59.476Z,89.44
2019-05-17T14:23:28.970Z,89.80
2019-05-17T14:25:58.566Z,90.15
2019-05-17T14:28:28.188Z,90.05
2019-05-17T14:30:57.650Z,90.49
2019-05-17T14:33:27.099Z,89.70
2019-05-17T14:35:56.496Z,90.39
2019-05-17T14:38:25.931Z,91.34
2019-05-17T14:41:10.663Z,88.96
2019-05-17T14:43:26.542Z,88.77
2019-05-17T14:45:55.981Z,88.69
2019-05-17T14:48:25.423Z,87.60
2019-05-17T14:50:54.868Z,86.98
2019-05-17T14:53:24.330Z,85.96
2019-05-17T14:55:53.765Z,87.25
2019-05-17T14:58:23.177Z,84.39
2019-05-17T15:00:52.612Z,86.09
2019-05-17T15:03:22.058Z,84.60
2019-05-17T15:05:51.483Z,85.00
2019-05-17T15:08:20.894Z,84.01
2019-05-17T15:10:50.350Z,85.29
2019-05-17T15:13:19.770Z,85.68
2019-05-17T15:15:49.411Z,87.28
2019-05-17T15:18:18.822Z,86.56
2019-05-17T15:20:48.290Z,86.50
2019-05-17T15:23:17.697Z,86.97
2019-05-17T15:25:47.128Z,86.49
2019-05-17T15:28:16.571Z,87.29
2019-05-17T15:30:45.976Z,88.12
2019-05-17T15:33:15.414Z,89.46
2019-05-17T15:35:44.820Z,89.72
2019-05-17T15:38:14.257Z,90.52
2019-05-17T15:40:43.696Z,90.47
2019-05-17T15:43:13.162Z,90.15
2019-05-17T15:45:42.598Z,89.92
2019-05-17T15:48:12.239Z,90.64
2019-05-17T15:50:41.658Z,89.80
2019-05-17T15:53:11.104Z,90.64
2019-05-17T15:55:40.495Z,91.33
2019-05-17T15:58:09.933Z,91.64
2019-05-17T16:00:39.315Z,92.19
2019-05-17T16:03:08.761Z,92.45
2019-05-17T16:05:38.182Z,92.78
2019-05-17T16:08:07.629Z,93.16
2019-05-17T16:10:37.102Z,93.88
2019-05-17T16:13:06.569Z,93.42
2019-05-17T16:15:36.031Z,93.50
2019-05-17T16:18:05.532Z,92.95
2019-05-17T16:20:34.947Z,93.35
2019-05-17T16:23:04.384Z,93.16
2019-05-17T16:25:34.115Z,94.54
2019-05-17T16:28:03.658Z,94.90
2019-05-17T16:30:33.096Z,94.61
2019-05-17T16:33:02.526Z,95.02
2019-05-17T16:35:31.989Z,95.41
2019-05-17T16:38:01.434Z,95.01
2019-05-17T16:40:30.877Z,95.78
2019-05-17T16:43:00.284Z,96.08
2019-05-17T16:45:29.732Z,96.37
2019-05-17T16:47:59.157Z,97.47
2019-05-17T16:50:28.611Z,96.59
2019-05-17T16:53:06.042Z,95.95
2019-05-17T16:55:29.269Z,95.75
2019-05-17T16:57:58.680Z,96.11
2019-05-17T17:00:32.602Z,97.26
2019-05-17T17:03:02.058Z,97.86
2019-05-17T17:05:31.481Z,99.56
2019-05-17T17:08:00.915Z,99.73
2019-05-17T17:10:30.378Z,100.00
2019-05-17T17:12:59.838Z,100.00
2019-05-17T17:15:29.291Z,100.00
2019-05-17T17:17:58.709Z,100.00
2019-05-17T17:20:28.148Z,100.00
2019-05-17T17:22:57.594Z,100.00
2019-05-17T17:25:27.832Z,100.00
2019-05-17T17:27:57.363Z,100.00
2019-05-17T17:30:26.795Z,100.00
2019-05-17T17:32:56.211Z,100.00
2019-05-17T17:35:25.645Z,100.00
2019-05-17T17:37:55.096Z,100.00
2019-05-17T17:40:26.351Z,100.00
2019-05-17T17:42:55.795Z,100.00
2019-05-17T17:45:25.242Z,100.00
2019-05-17T17:47:54.678Z,100.00
2019-05-17T17:50:24.173Z,100.00
2019-05-17T17:52:53.594Z,100.00
2019-05-17T17:55:23.026Z,100.00
2019-05-17T17:57:52.442Z,100.00
2019-05-17T18:00:22.097Z,100.00
2019-05-17T18:02:51.554Z,100.00
2019-05-17T18:05:20.978Z,100.00
2019-05-17T18:07:50.412Z,100.00
2019-05-17T18:10:27.508Z,100.00
2019-05-17T18:12:56.980Z,100.00
2019-05-17T18:15:43.922Z,100.00
2019-05-17T18:18:13.365Z,100.00
2019-05-17T18:20:42.826Z,100.00
2019-05-17T18:23:12.264Z,100.00
2019-05-17T18:25:41.791Z,100.00
2019-05-17T18:28:11.238Z,100.00
2019-05-17T18:30:40.669Z,100.00
2019-05-17T18:33:10.107Z,100.00
2019-05-17T18:35:39.532Z,100.00
2019-05-17T18:38:09.007Z,100.00
2019-05-17T18:40:38.410Z,100.00
2019-05-17T18:43:07.843Z,100.00
2019-05-17T18:45:37.287Z,100.00
2019-05-17T18:48:06.729Z,100.00
2019-05-17T18:50:36.245Z,100.00
2019-05-17T18:53:08.294Z,100.00
2019-05-17T18:55:36.975Z,100.00
2019-05-17T18:58:06.423Z,100.00
2019-05-17T19:00:35.886Z,100.00
2019-05-17T19:03:05.322Z,100.00
2019-05-17T19:05:34.761Z,100.00
2019-05-17T19:08:04.177Z,100.00
2019-05-17T19:10:33.598Z,100.00
2019-05-17T19:13:03.081Z,100.00
2019-05-17T19:15:32.509Z,100.00
2019-05-17T19:18:01.979Z,100.00
2019-05-17T19:20:31.501Z,100.00
2019-05-17T19:23:00.941Z,100.00
2019-05-17T19:25:30.403Z,100.00
2019-05-17T19:27:59.873Z,100.00
2019-05-17T19:30:29.315Z,100.00
2019-05-17T19:32:58.755Z,100.00
2019-05-17T19:35:28.202Z,100.00
2019-05-17T19:37:57.648Z,100.00
2019-05-17T19:40:27.097Z,100.00
2019-05-17T19:42:56.555Z,100.00
2019-05-17T19:45:26.174Z,100.00
2019-05-17T19:47:55.621Z,100.00
2019-05-17T19:50:25.064Z,100.00
2019-05-17T19:52:54.479Z,100.00
2019-05-17T19:55:23.924Z,100.00
2019-05-17T19:57:53.366Z,100.00
2019-05-17T20:00:22.912Z,100.00
2019-05-17T20:02:52.337Z,100.00
2019-05-17T20:05:21.784Z,100.00
2019-05-17T20:07:51.239Z,100.00
2019-05-17T20:10:20.669Z,100.00
2019-05-17T20:12:50.120Z,100.00
2019-05-17T20:15:32.312Z,100.00
2019-05-17T20:17:50.744Z,100.00
2019-05-17T20:20:20.202Z,100.00
2019-05-17T20:22:49.660Z,100.00
2019-05-17T20:25:19.101Z,100.00
2019-05-17T20:27:48.552Z,100.00
2019-05-17T20:30:18.072Z,100.00
2019-05-17T20:32:47.587Z,100.00
2019-05-17T20:35:18.055Z,100.00
2019-05-17T20:37:48.173Z,100.00
2019-05-17T20:40:17.603Z,100.00
2019-05-17T20:42:47.029Z,100.00
2019-05-17T20:45:30.592Z,100.00
2019-05-17T20:47:47.756Z,100.00
2019-05-17T20:50:17.188Z,100.00
2019-05-17T20:52:46.630Z,100.00
2019-05-17T20:55:16.060Z,100.00
2019-05-17T20:57:45.540Z,100.00
2019-05-17T21:00:15.150Z,100.00
2019-05-17T21:02:44.590Z,100.00
2019-05-17T21:05:16.671Z,100.00
2019-05-17T21:07:46.233Z,100.00
2019-05-17T21:10:15.686Z,100.00
2019-05-17T21:12:45.102Z,100.00
2019-05-17T21:15:16.102Z,100.00
2019-05-17T21:17:45.538Z,100.00
2019-05-17T21:20:16.531Z,100.00
2019-05-17T21:22:45.994Z,100.00
2019-05-17T21:25:15.450Z,100.00
2019-05-17T21:27:44.886Z,100.00
2019-05-17T21:30:14.330Z,100.00
2019-05-17T21:32:43.747Z,100.00
2019-05-17T21:35:13.225Z,100.00
2019-05-17T21:37:42.686Z,100.00
2019-05-17T21:40:12.130Z,100.00
2019-05-17T21:42:41.566Z,100.00
2019-05-17T21:45:11.046Z,100.00
2019-05-17T21:47:40.466Z,100.00
2019-05-17T21:50:09.900Z,100.00
2019-05-17T21:52:39.400Z,100.00
2019-05-17T21:55:08.820Z,100.00
2019-05-17T21:57:38.282Z,100.00
2019-05-17T22:00:10.772Z,100.00
2019-05-17T22:02:40.211Z,100.00
2019-05-17T22:05:09.649Z,100.00
2019-05-17T22:07:39.107Z,100.00
2019-05-17T22:10:10.137Z,100.00
2019-05-17T22:12:39.574Z,100.00
2019-05-17T22:15:09.080Z,100.00
2019-05-17T22:17:38.520Z,100.00
2019-05-17T22:20:07.940Z,100.00
2019-05-17T22:22:37.409Z,100.00
2019-05-17T22:25:06.853Z,100.00
2019-05-17T22:27:36.309Z,100.00
2019-05-17T22:30:06.143Z,100.00
2019-05-17T22:32:35.659Z,100.00
2019-05-17T22:35:05.512Z,100.00
2019-05-17T22:37:34.966Z,100.00
2019-05-17T22:40:04.661Z,100.00
2019-05-17T22:42:34.092Z,100.00
2019-05-17T22:45:03.558Z,100.00
2019-05-17T22:47:33.121Z,100.00
2019-05-17T22:50:02.556Z,100.00
2019-05-17T22:52:32.096Z,100.00
2019-05-17T22:55:01.596Z,100.00
2019-05-17T22:57:31.163Z,100.00
2019-05-17T23:00:00.588Z,100.00
2019-05-17T23:02:30.035Z,100.00
2019-05-17T23:04:59.460Z,100.00
2019-05-17T23:07:28.917Z,100.00
2019-05-17T23:09:58.370Z,100.00
2019-05-17T23:12:27.901Z,100.00
2019-05-17T23:14:57.342Z,100.00
2019-05-17T23:17:26.817Z,100.00
2019-05-17T23:19:56.275Z,100.00
2019-05-17T23:22:25.694Z,100.00
2019-05-17T23:24:55.149Z,100.00
2019-05-17T23:27:24.595Z,100.00
2019-05-17T23:29:54.036Z,100.00
2019-05-17T23:32:23.496Z,100.00
2019-05-17T23:34:52.920Z,100.00
2019-05-17T23:37:22.357Z,100.00
2019-05-17T23:39:51.899Z,100.00
2019-05-17T23:42:21.318Z,100.00
2019-05-17T23:44:50.873Z,100.00
2019-05-17T23:47:20.318Z,100.00
2019-05-17T23:49:49.770Z,100.00
2019-05-17T23:52:19.212Z,100.00
2019-05-17T23:54:48.653Z,100.00
2019-05-17T23:57:18.086Z,100.00
2019-05-17T23:59:47.611Z,100.00
